Time;durP1;ratioP1;P1;durP2;ratioP2;P2;SDS_P1;SDS_P2;PMS_P1;PMS_P2;Temp;Humidity;BMP_temperature;BMP_pressure;BME280_temperature;BME280_humidity;BME280_pressure;Samples;Min_cycle;Max_cycle;Signal;HPM_P1;HPM_P2
2023/01/02 00:01:04;;;;;;;6.80;5.50;;;;;;;11.49;75.25;100284.89;1629459;86;21044;-79
2023/01/02 00:03:32;;;;;;;5.58;5.03;;;;;;;11.46;75.40;100278.66;1615411;87;20995;-80
2023/01/02 00:06:04;;;;;;;6.25;5.67;;;;;;;11.42;75.59;100282.86;1630140;86;21216;-82
2023/01/02 00:08:31;;;;;;;9.55;5.53;;;;;;;11.37;75.80;100293.02;1648411;86;21766;-77
2023/01/02 00:10:59;;;;;;;6.20;4.85;;;;;;;11.35;76.02;100294.33;1630070;87;21057;-81
2023/01/02 00:13:25;;;;;;;8.65;6.10;;;;;;;11.35;76.14;100283.55;1631407;86;21544;-78
2023/01/02 00:15:52;;;;;;;9.83;6.42;;;;;;;11.35;76.23;100292.45;1637465;86;21160;-77
2023/01/02 00:18:19;;;;;;;7.65;6.30;;;;;;;11.35;76.25;100294.33;1640430;86;21066;-74
2023/01/02 00:20:46;;;;;;;7.90;5.92;;;;;;;11.34;76.29;100286.77;1640455;85;21299;-78
2023/01/02 00:23:12;;;;;;;7.72;6.10;;;;;;;11.31;76.36;100281.88;1628235;88;21014;-80
2023/01/02 00:25:40;;;;;;;6.80;5.60;;;;;;;11.28;76.51;100285.03;1622119;86;21102;-88
2023/01/02 00:28:06;;;;;;;8.83;6.33;;;;;;;11.25;76.60;100298.98;1603541;88;21111;-86
2023/01/02 00:30:35;;;;;;;7.22;6.30;;;;;;;11.19;76.90;100289.69;1618652;88;21095;-79
2023/01/02 00:33:03;;;;;;;9.13;6.00;;;;;;;11.16;77.06;100301.77;1603492;88;21121;-78
2023/01/02 00:35:30;;;;;;;7.00;5.65;;;;;;;11.12;77.30;100303.30;1620882;88;21019;-76
2023/01/02 00:37:57;;;;;;;6.97;5.78;;;;;;;11.10;77.52;100301.36;1632506;87;21068;-75
2023/01/02 00:40:28;;;;;;;5.37;4.87;;;;;;;11.11;77.67;100300.84;1616781;87;21588;-75
2023/01/02 00:42:56;;;;;;;6.75;5.70;;;;;;;11.11;77.67;100308.91;1601915;88;21698;-74
2023/01/02 00:45:22;;;;;;;6.58;5.50;;;;;;;11.11;77.72;100298.15;1616864;88;21176;-74
2023/01/02 00:47:49;;;;;;;10.98;6.10;;;;;;;11.09;77.81;100304.28;1621646;87;20976;-74
2023/01/02 00:50:17;;;;;;;8.08;5.20;;;;;;;11.06;77.93;100302.90;1644554;87;21531;-74
2023/01/02 00:52:43;;;;;;;6.83;5.90;;;;;;;11.04;77.98;100298.27;1629291;87;21063;-81
2023/01/02 00:55:10;;;;;;;7.72;5.42;;;;;;;11.01;78.19;100305.48;1622076;87;21084;-77
2023/01/02 00:57:38;;;;;;;6.62;5.42;;;;;;;10.99;78.37;100300.03;1633249;87;21063;-75
2023/01/02 01:00:08;;;;;;;7.67;5.50;;;;;;;10.96;78.56;100304.03;1628304;87;20988;-75
2023/01/02 01:02:35;;;;;;;7.33;6.42;;;;;;;10.97;78.66;100302.16;1608712;87;21072;-76
2023/01/02 01:05:02;;;;;;;10.08;6.75;;;;;;;10.98;78.73;100293.86;1644714;86;21059;-74
2023/01/02 01:07:29;;;;;;;6.08;5.40;;;;;;;10.98;78.69;100303.80;1629172;86;21076;-78
2023/01/02 01:09:58;;;;;;;6.60;5.95;;;;;;;10.96;78.70;100311.28;1603371;88;21044;-80
2023/01/02 01:12:26;;;;;;;6.08;5.15;;;;;;;10.94;78.92;100303.44;1625566;87;21600;-77
2023/01/02 01:14:53;;;;;;;8.28;5.22;;;;;;;10.91;79.03;100312.00;1617057;88;21635;-78
2023/01/02 01:17:19;;;;;;;8.98;6.03;;;;;;;10.87;79.18;100322.42;1621186;87;21017;-76
2023/01/02 01:19:46;;;;;;;7.78;5.75;;;;;;;10.84;79.32;100317.49;1628815;86;21051;-77
2023/01/02 01:22:12;;;;;;;6.50;5.70;;;;;;;10.83;79.48;100314.53;1631402;87;21244;-77
2023/01/02 01:24:39;;;;;;;6.60;5.87;;;;;;;10.83;79.57;100311.84;1618154;87;21076;-78
2023/01/02 01:27:07;;;;;;;6.72;5.53;;;;;;;10.84;79.61;100302.70;1626694;86;21132;-77
2023/01/02 01:29:33;;;;;;;6.83;6.08;;;;;;;10.84;79.70;100308.60;1605471;88;21064;-76
2023/01/02 01:32:01;;;;;;;7.05;5.75;;;;;;;10.81;79.70;100317.16;1646722;86;21072;-78
2023/01/02 01:34:28;;;;;;;8.40;5.35;;;;;;;10.78;79.77;100306.35;1629504;88;21157;-77
2023/01/02 01:36:54;;;;;;;10.25;5.65;;;;;;;10.76;79.86;100299.55;1629200;86;21115;-78
2023/01/02 01:39:21;;;;;;;6.83;5.87;;;;;;;10.72;80.01;100293.83;1656792;86;21047;-77
2023/01/02 01:41:48;;;;;;;8.20;5.30;;;;;;;10.70;80.13;100293.23;1643634;86;21492;-78
2023/01/02 01:44:53;;;;;;;6.90;5.75;;;;;;;10.66;80.23;100306.88;1629857;86;21011;-78
2023/01/02 01:47:44;;;;;;;9.98;6.28;;;;;;;10.64;80.51;100313.56;1625362;88;21771;-77
2023/01/02 01:50:19;;;;;;;8.98;5.85;;;;;;;10.63;80.70;100310.56;1637685;86;21016;-78
2023/01/02 01:52:57;;;;;;;7.08;6.35;;;;;;;10.58;80.83;100317.17;1637582;86;21577;-78
2023/01/02 01:55:41;;;;;;;8.23;6.10;;;;;;;10.56;80.94;100318.75;1657239;86;21402;-79
2023/01/02 01:58:09;;;;;;;;;;;;;;;10.53;81.15;100323.26;1643162;86;21099;-79
2023/01/02 02:00:39;;;;;;;5.78;5.17;;;;;;;10.45;81.58;100321.72;1625621;86;21148;-79
2023/01/02 02:03:16;;;;;;;6.62;5.95;;;;;;;10.42;81.76;100326.23;1650456;86;21117;-78
2023/01/02 02:05:43;;;;;;;6.62;5.40;;;;;;;10.41;82.05;100322.42;1641815;86;21587;-79
2023/01/02 02:08:22;;;;;;;10.28;7.30;;;;;;;10.41;82.18;100330.48;1627714;88;21055;-79
2023/01/02 02:10:49;;;;;;;6.83;6.15;;;;;;;10.39;82.24;100336.13;1602333;88;21603;-80
2023/01/02 02:13:17;;;;;;;9.40;7.15;;;;;;;10.36;82.40;100316.40;1602098;88;21928;-79
2023/01/02 02:15:59;;;;;;;5.95;5.20;;;;;;;10.34;82.53;100323.08;1644728;86;21624;-77
2023/01/02 02:18:40;;;;;;;8.33;6.55;;;;;;;10.33;82.70;100316.05;1576466;88;21087;-77
2023/01/02 02:21:46;;;;;;;7.87;6.25;;;;;;;10.29;82.93;100320.27;1626055;88;21074;-73
2023/01/02 02:24:42;;;;;;;6.75;6.15;;;;;;;10.28;83.04;100332.06;1625977;88;21087;-76
2023/01/02 02:27:45;;;;;;;6.50;5.90;;;;;;;10.26;83.09;100336.87;1634321;86;21285;-76
2023/01/02 02:30:21;;;;;;;11.28;5.70;;;;;;;10.24;83.20;100334.92;1627721;86;21113;-77
2023/01/02 02:33:14;;;;;;;6.70;5.75;;;;;;;10.19;83.54;100342.86;1628975;87;21011;-79
2023/01/02 02:35:54;;;;;;;9.13;6.20;;;;;;;10.15;83.82;100349.20;1653907;85;21575;-79
2023/01/02 02:38:44;;;;;;;8.08;6.45;;;;;;;10.13;84.03;100356.67;1607382;86;21131;-80
2023/01/02 02:41:36;;;;;;;8.75;6.15;;;;;;;10.13;84.12;100349.13;1627358;86;21730;-79
2023/01/02 02:44:34;;;;;;;11.10;6.30;;;;;;;10.13;84.25;100367.94;1632847;86;21675;-82
2023/01/02 02:47:10;;;;;;;7.08;6.10;;;;;;;10.10;84.29;100365.20;1657968;86;21627;-77
2023/01/02 02:49:57;;;;;;;7.12;6.20;;;;;;;10.06;84.60;100378.81;1602744;88;21104;-80
2023/01/02 02:52:34;;;;;;;6.28;5.25;;;;;;;10.04;84.71;100373.66;1646990;86;21028;-78
2023/01/02 02:55:09;;;;;;;7.53;6.17;;;;;;;10.04;84.80;100373.66;1653684;86;21176;-77
2023/01/02 02:57:37;;;;;;;7.42;6.37;;;;;;;10.04;84.85;100387.09;1644359;86;21677;-78
2023/01/02 03:00:07;;;;;;;8.55;6.10;;;;;;;10.05;84.90;100377.16;1605291;88;21112;-76
2023/01/02 03:02:35;;;;;;;7.60;6.55;;;;;;;10.05;84.98;100386.57;1627236;86;21569;-78
2023/01/02 03:05:04;;;;;;;8.98;6.72;;;;;;;10.04;85.04;100391.64;1609547;86;21019;-77
2023/01/02 03:07:42;;;;;;;8.73;6.47;;;;;;;10.02;85.14;100395.10;1620115;88;22046;-77
2023/01/02 03:10:35;;;;;;;9.43;6.60;;;;;;;10.00;85.39;100382.41;1641514;86;21077;-79
2023/01/02 03:13:58;;;;;;;8.58;5.72;;;;;;;10.02;85.41;100374.95;1605285;89;22303;-78
2023/01/02 03:16:42;;;;;;;8.33;6.78;;;;;;;10.04;85.30;100376.34;1615961;86;21056;-76
2023/01/02 03:19:37;;;;;;;11.78;7.03;;;;;;;10.05;85.29;100387.39;1656379;86;21044;-77
2023/01/02 03:22:14;;;;;;;7.03;6.17;;;;;;;10.06;85.30;100380.16;1657548;86;21097;-77
2023/01/02 03:24:40;;;;;;;13.40;6.22;;;;;;;10.05;85.35;100395.98;1657934;86;20973;-77
2023/01/02 03:27:17;;;;;;;8.23;6.60;;;;;;;10.02;85.43;100395.10;1627034;86;21041;-77
2023/01/02 03:29:48;;;;;;;8.53;6.28;;;;;;;10.01;85.54;100401.00;1632919;86;21059;-74
2023/01/02 03:32:19;;;;;;;6.58;5.90;;;;;;;10.01;85.60;100408.23;1635595;86;21063;-74
2023/01/02 03:34:47;;;;;;;7.78;6.55;;;;;;;10.00;85.70;100418.69;1605487;88;21182;-74
2023/01/02 03:37:25;;;;;;;7.00;6.37;;;;;;;10.00;85.77;100407.94;1621223;88;21549;-74
2023/01/02 03:39:57;;;;;;;9.18;6.97;;;;;;;9.99;85.88;100401.73;1651075;86;21070;-74
2023/01/02 03:42:31;;;;;;;8.48;7.55;;;;;;;9.99;85.93;100404.42;1653987;85;21587;-76
2023/01/02 03:45:21;;;;;;;9.50;6.20;;;;;;;9.98;86.04;100408.16;1657726;86;21121;-76
2023/01/02 03:47:55;;;;;;;7.15;6.42;;;;;;;9.98;86.09;100420.25;1627397;86;21319;-78
2023/01/02 03:50:32;;;;;;;11.60;6.75;;;;;;;9.98;86.16;100416.73;1629243;88;21066;-76
2023/01/02 03:52:59;;;;;;;12.15;8.33;;;;;;;9.99;86.14;100411.14;1630169;86;21584;-76
2023/01/02 03:55:26;;;;;;;9.10;8.08;;;;;;;10.00;86.10;100412.79;1658141;86;21029;-76
2023/01/02 03:58:31;;;;;;;9.68;7.20;;;;;;;9.99;86.08;100411.14;1595330;86;21759;-75
2023/01/02 04:01:06;;;;;;;8.10;6.08;;;;;;;9.98;86.12;100423.45;1657211;86;21573;-76
2023/01/02 04:03:41;;;;;;;8.38;6.50;;;;;;;9.99;86.17;100421.89;1643407;86;21580;-76
2023/01/02 04:06:17;;;;;;;7.75;6.97;;;;;;;10.01;86.16;100433.25;1647874;86;21027;-75
2023/01/02 04:09:00;;;;;;;7.50;6.78;;;;;;;10.01;86.10;100417.13;1601668;88;21116;-73
2023/01/02 04:11:28;;;;;;;8.08;6.47;;;;;;;10.01;86.08;100435.94;1623400;88;21072;-72
2023/01/02 04:14:02;;;;;;;7.92;6.83;;;;;;;10.02;86.06;100436.77;1601795;88;21173;-75
2023/01/02 04:16:30;;;;;;;7.67;5.97;;;;;;;9.98;86.13;100436.37;1625916;88;20921;-73
2023/01/02 04:19:11;;;;;;;11.88;8.03;;;;;;;9.97;86.20;100436.62;1648645;86;21020;-75
2023/01/02 04:21:40;;;;;;;7.97;7.17;;;;;;;9.96;86.24;100447.89;1623373;86;21150;-74
2023/01/02 04:24:16;;;;;;;8.08;6.50;;;;;;;9.96;86.38;100447.06;1629438;86;21051;-73
2023/01/02 04:26:54;;;;;;;8.88;5.85;;;;;;;9.97;86.44;100454.91;1601855;88;21064;-74
2023/01/02 04:29:20;;;;;;;7.12;6.42;;;;;;;9.98;86.38;100462.42;1625565;88;21040;-74
2023/01/02 04:31:58;;;;;;;7.65;6.72;;;;;;;9.98;86.43;100469.14;1652685;86;21056;-73
2023/01/02 04:34:25;;;;;;;11.45;6.50;;;;;;;9.97;86.44;100466.17;1624472;86;21620;-75
2023/01/02 04:36:51;;;;;;;8.55;6.55;;;;;;;9.96;86.46;100468.56;1625750;88;21080;-74
2023/01/02 04:39:18;;;;;;;9.75;7.28;;;;;;;9.93;86.54;100468.48;1631097;86;21730;-73
2023/01/02 04:41:45;;;;;;;8.28;6.40;;;;;;;9.94;86.58;100465.27;1653851;86;20983;-73
2023/01/02 04:44:13;;;;;;;7.45;6.45;;;;;;;9.97;86.60;100479.61;1657811;86;21024;-74
2023/01/02 04:46:39;;;;;;;7.60;6.85;;;;;;;9.99;86.60;100486.39;1647076;86;21047;-75
2023/01/02 04:49:06;;;;;;;8.60;6.97;;;;;;;10.01;86.44;100480.80;1648823;86;21083;-76
2023/01/02 04:51:34;;;;;;;9.48;6.83;;;;;;;9.99;86.40;100483.70;1626005;88;21533;-74
2023/01/02 04:54:00;;;;;;;8.78;7.87;;;;;;;9.96;86.44;100490.89;1630638;86;22400;-75
2023/01/02 04:56:27;;;;;;;9.30;7.55;;;;;;;9.92;86.54;100492.39;1644109;86;21123;-75
2023/01/02 04:58:53;;;;;;;6.85;6.12;;;;;;;9.90;86.67;100493.64;1647551;86;21048;-76
2023/01/02 05:01:20;;;;;;;11.43;8.00;;;;;;;9.91;86.79;100495.30;1656950;86;21115;-73
2023/01/02 05:03:50;;;;;;;8.98;6.60;;;;;;;9.89;86.90;100498.20;1658226;86;21074;-74
2023/01/02 05:06:16;;;;;;;8.70;7.78;;;;;;;9.91;86.97;100500.14;1646433;86;21048;-74
2023/01/02 05:08:43;;;;;;;8.53;7.08;;;;;;;9.92;86.89;100500.45;1648973;86;20996;-74
2023/01/02 05:11:14;;;;;;;7.75;7.03;;;;;;;9.91;86.87;100512.23;1629352;86;21039;-74
2023/01/02 05:13:40;;;;;;;7.80;6.83;;;;;;;9.89;86.86;100516.18;1628829;88;21111;-74
2023/01/02 05:16:07;;;;;;;12.25;7.90;;;;;;;9.85;86.93;100519.02;1604925;88;21094;-73
2023/01/02 05:18:35;;;;;;;7.50;6.28;;;;;;;9.83;87.13;100519.79;1625189;86;21572;-74
2023/01/02 05:23:54;;;;;;;8.25;6.65;;;;;;;9.82;87.35;100523.52;1656355;86;21604;-78
2023/01/02 05:26:21;;;;;;;10.98;7.20;;;;;;;9.84;87.44;100525.44;1637198;86;21075;-76
2023/01/02 05:28:50;;;;;;;8.05;6.97;;;;;;;9.84;87.35;100528.13;1628947;86;21787;-77
2023/01/02 05:31:19;;;;;;;13.20;9.25;;;;;;;9.82;87.42;100528.89;1645279;86;20960;-76
2023/01/02 05:33:55;;;;;;;9.68;7.97;;;;;;;9.79;87.46;100525.28;1657909;85;21635;-76
2023/01/02 05:36:22;;;;;;;8.90;6.92;;;;;;;9.76;87.57;100533.28;1626163;86;21604;-76
2023/01/02 05:38:49;;;;;;;12.70;7.05;;;;;;;9.73;87.75;100530.23;1632498;86;21528;-78
2023/01/02 05:41:16;;;;;;;9.40;7.17;;;;;;;9.72;87.92;100545.52;1652398;86;21995;-80
2023/01/02 05:43:42;;;;;;;10.13;7.42;;;;;;;9.73;87.99;100542.32;1601867;88;21135;-76
2023/01/02 05:46:17;;;;;;;7.45;6.75;;;;;;;9.74;88.04;100542.08;1626874;86;21107;-77
2023/01/02 05:48:44;;;;;;;7.60;6.80;;;;;;;9.74;88.01;100546.63;1652596;86;20995;-77
2023/01/02 05:51:13;;;;;;;8.23;7.42;;;;;;;9.71;88.02;100546.56;1658069;86;21086;-78
2023/01/02 05:53:40;;;;;;;8.88;7.25;;;;;;;9.68;88.05;100544.85;1629812;86;21140;-78
2023/01/02 05:56:13;;;;;;;8.90;7.47;;;;;;;9.64;88.22;100543.11;1623457;88;20980;-77
2023/01/02 05:58:44;;;;;;;8.70;6.85;;;;;;;9.62;88.37;100547.38;1621415;86;21043;-76
2023/01/02 06:01:17;;;;;;;10.50;7.67;;;;;;;9.59;88.59;100537.61;1630058;86;21080;-76
2023/01/02 06:03:50;;;;;;;7.55;6.58;;;;;;;9.58;88.70;100537.31;1628679;86;21112;-75
2023/01/02 06:06:21;;;;;;;8.40;7.33;;;;;;;9.59;88.81;100535.72;1629178;87;21229;-79
2023/01/02 06:08:48;;;;;;;9.13;7.62;;;;;;;9.60;88.82;100536.03;1640138;86;20956;-76
2023/01/02 06:11:17;;;;;;;13.25;8.08;;;;;;;9.59;88.75;100545.13;1642991;86;21107;-76
2023/01/02 06:13:44;;;;;;;10.95;7.87;;;;;;;9.55;88.82;100547.95;1643060;86;21092;-75
2023/01/02 06:16:10;;;;;;;10.25;7.35;;;;;;;9.51;89.01;100536.55;1637854;86;21145;-78
2023/01/02 06:18:38;;;;;;;10.55;8.45;;;;;;;9.49;89.20;100542.16;1629690;88;21152;-76
2023/01/02 06:21:08;;;;;;;12.45;7.03;;;;;;;9.48;89.38;100541.02;1637156;86;21031;-76
2023/01/02 06:23:36;;;;;;;10.18;7.50;;;;;;;9.50;89.46;100553.17;1629569;86;21098;-74
2023/01/02 06:26:15;;;;;;;9.53;7.97;;;;;;;9.50;89.53;100555.86;1625999;88;21100;-75
2023/01/02 06:28:42;;;;;;;8.90;7.83;;;;;;;9.54;89.49;100553.02;1622546;86;21076;-75
2023/01/02 06:31:14;;;;;;;11.90;8.73;;;;;;;9.54;89.36;100547.66;1619456;87;21906;-75
2023/01/02 06:33:42;;;;;;;11.60;8.23;;;;;;;9.54;89.45;100557.60;1620552;87;21051;-75
2023/01/02 06:36:13;;;;;;;10.10;7.75;;;;;;;9.54;89.56;100562.42;1618094;88;21024;-75
2023/01/02 06:38:39;;;;;;;9.85;8.78;;;;;;;9.55;89.55;100564.59;1618007;87;21128;-75
2023/01/02 06:41:07;;;;;;;13.60;7.03;;;;;;;9.57;89.55;100567.38;1629545;87;21035;-75
2023/01/02 06:43:34;;;;;;;8.70;7.80;;;;;;;9.59;89.47;100571.98;1618745;86;21350;-76
2023/01/02 06:46:03;;;;;;;12.78;8.85;;;;;;;9.61;89.41;100569.91;1615477;88;21142;-76
2023/01/02 06:48:32;;;;;;;11.57;8.55;;;;;;;9.64;89.42;100573.48;1615590;88;21035;-76
2023/01/02 06:50:58;;;;;;;11.83;9.50;;;;;;;9.67;89.30;100585.66;1626180;87;21063;-77
2023/01/02 06:53:25;;;;;;;9.35;7.70;;;;;;;9.69;89.17;100577.39;1618874;86;21083;-77
2023/01/02 06:55:57;;;;;;;11.60;7.97;;;;;;;9.68;89.00;100580.59;1615571;88;21332;-77
2023/01/02 06:58:25;;;;;;;10.85;8.70;;;;;;;9.66;88.97;100581.33;1616440;87;21051;-76
2023/01/02 07:00:51;;;;;;;11.70;8.40;;;;;;;9.64;89.02;100594.97;1624514;87;20951;-75
2023/01/02 07:03:19;;;;;;;11.65;8.73;;;;;;;9.64;89.04;100594.97;1634279;87;21051;-76
2023/01/02 07:05:46;;;;;;;11.65;8.83;;;;;;;9.65;89.16;100605.19;1618951;86;21572;-74
2023/01/02 07:08:13;;;;;;;12.80;8.75;;;;;;;9.67;89.17;100596.41;1617138;88;21090;-75
2023/01/02 07:10:42;;;;;;;11.53;7.85;;;;;;;9.69;89.06;100603.70;1616053;87;21075;-74
2023/01/02 07:13:12;;;;;;;10.28;8.88;;;;;;;9.72;89.08;100591.71;1617222;87;21062;-74
2023/01/02 07:15:40;;;;;;;12.10;9.70;;;;;;;9.73;88.90;100603.59;1616783;87;21615;-77
2023/01/02 07:18:10;;;;;;;9.80;8.20;;;;;;;9.74;88.83;100598.48;1617498;88;21086;-78
2023/01/02 07:20:38;;;;;;;10.68;8.70;;;;;;;9.74;88.79;100607.89;1619227;87;21316;-78
2023/01/02 07:23:10;;;;;;;9.43;8.10;;;;;;;9.75;88.76;100598.80;1623937;87;21107;-79
2023/01/02 07:25:42;;;;;;;12.98;9.93;;;;;;;9.78;88.78;100600.23;1617919;88;21058;-75
2023/01/02 07:28:12;;;;;;;12.90;9.68;;;;;;;9.84;88.79;100605.52;1624852;87;21511;-79
2023/01/02 07:30:41;;;;;;;10.98;8.88;;;;;;;9.89;88.47;100615.59;1634171;86;21829;-77
2023/01/02 07:33:10;;;;;;;12.90;8.95;;;;;;;9.92;88.27;100611.14;1632695;86;21279;-75
2023/01/02 07:35:39;;;;;;;10.82;8.63;;;;;;;9.93;88.13;100612.77;1632739;87;21076;-79
2023/01/02 07:38:09;;;;;;;11.45;9.15;;;;;;;9.93;88.05;100621.64;1609546;88;21136;-77
2023/01/02 07:40:36;;;;;;;9.78;8.78;;;;;;;9.93;87.89;100617.61;1628023;86;21095;-75
2023/01/02 07:43:03;;;;;;;9.33;7.55;;;;;;;9.93;87.86;100623.51;1642443;86;21410;-74
2023/01/02 07:45:33;;;;;;;11.28;7.15;;;;;;;9.92;87.90;100619.20;1645510;86;21251;-76
2023/01/02 07:48:00;;;;;;;9.50;7.97;;;;;;;9.95;87.92;100624.13;1600873;88;21085;-78
2023/01/02 07:50:27;;;;;;;10.90;8.75;;;;;;;9.97;87.93;100622.88;1618453;88;21032;-76
2023/01/02 07:52:53;;;;;;;12.07;8.50;;;;;;;10.02;87.81;100622.20;1617921;88;20989;-75
2023/01/02 07:55:20;;;;;;;10.72;8.20;;;;;;;10.08;87.73;100629.34;1596410;88;21638;-77
2023/01/02 07:57:48;;;;;;;11.10;9.15;;;;;;;10.12;87.42;100632.44;1616982;88;21792;-77
2023/01/02 08:00:16;;;;;;;11.30;8.88;;;;;;;10.15;87.31;100632.80;1634246;87;21083;-79
2023/01/02 08:02:45;;;;;;;12.05;8.43;;;;;;;10.17;87.12;100634.75;1615760;87;21063;-78
2023/01/02 08:05:11;;;;;;;11.00;8.58;;;;;;;10.21;87.02;100640.53;1618747;87;21103;-79
2023/01/02 08:07:39;;;;;;;13.40;10.30;;;;;;;10.27;86.89;100646.33;1633557;87;21130;-76
2023/01/02 08:10:07;;;;;;;11.60;9.08;;;;;;;10.34;86.67;100632.30;1620635;87;21247;-77
2023/01/02 08:12:34;;;;;;;19.23;11.20;;;;;;;10.41;86.43;100636.55;1629257;87;20964;-78
2023/01/02 08:15:01;;;;;;;14.53;9.60;;;;;;;10.48;86.12;100631.09;1627151;87;21070;-78
2023/01/02 08:17:29;;;;;;;11.55;10.30;;;;;;;10.54;85.89;100641.48;1615880;87;21119;-77
2023/01/02 08:19:55;;;;;;;11.43;8.65;;;;;;;10.57;85.42;100646.39;1579736;88;21122;-78
2023/01/02 08:22:22;;;;;;;12.85;9.13;;;;;;;10.59;85.18;100641.62;1628655;87;21032;-77
2023/01/02 08:24:52;;;;;;;12.28;8.83;;;;;;;10.61;84.94;100641.67;1617372;87;21010;-79
2023/01/02 08:27:21;;;;;;;10.65;9.23;;;;;;;10.66;84.81;100645.86;1617177;88;21074;-77
2023/01/02 08:29:47;;;;;;;13.08;10.32;;;;;;;10.72;84.66;100638.75;1618442;87;21040;-77
2023/01/02 08:32:21;;;;;;;12.03;9.13;;;;;;;10.77;84.37;100641.58;1617693;87;21774;-80
2023/01/02 08:34:48;;;;;;;12.60;9.65;;;;;;;10.83;84.12;100643.37;1618833;88;21244;-80
2023/01/02 08:37:20;;;;;;;10.72;9.48;;;;;;;10.88;83.84;100646.20;1586831;88;21067;-80
2023/01/02 08:39:48;;;;;;;13.70;10.93;;;;;;;10.91;83.72;100651.94;1601855;88;21051;-80
2023/01/02 08:42:20;;;;;;;10.68;9.03;;;;;;;10.94;83.53;100651.47;1580213;88;21568;-81
2023/01/02 08:44:52;;;;;;;11.45;8.08;;;;;;;10.99;83.41;100648.61;1597321;88;21078;-77
2023/01/02 08:47:23;;;;;;;;;;;;;;;11.01;83.20;100646.52;1597607;88;21010;-78
2023/01/02 08:49:53;;;;;;;15.38;9.68;;;;;;;11.05;83.09;100642.32;1599768;88;20117;-79
2023/01/02 08:52:19;;;;;;;14.18;9.75;;;;;;;11.09;82.84;100636.77;1602663;88;21603;-78
2023/01/02 08:54:50;;;;;;;14.65;9.53;;;;;;;11.14;82.78;100636.38;1611092;87;21098;-75
2023/01/02 08:57:19;;;;;;;12.98;9.05;;;;;;;11.22;82.47;100641.97;1591729;87;21143;-77
2023/01/02 08:59:47;;;;;;;10.88;8.20;;;;;;;11.25;82.00;100643.67;1592358;88;21932;-75
2023/01/02 09:02:14;;;;;;;11.00;8.90;;;;;;;11.28;81.77;100643.20;1582156;88;21537;-76
2023/01/02 09:04:41;;;;;;;11.05;9.23;;;;;;;11.31;81.52;100633.85;1568027;88;21090;-75
2023/01/02 09:07:07;;;;;;;10.68;8.13;;;;;;;11.33;81.46;100625.82;1571965;89;21134;-76
2023/01/02 09:09:38;;;;;;;15.20;9.58;;;;;;;11.35;81.15;100618.86;1605052;88;21059;-77
2023/01/02 09:12:05;;;;;;;11.60;9.13;;;;;;;11.34;81.10;100616.70;1598061;87;21318;-79
2023/01/02 09:14:34;;;;;;;11.15;7.83;;;;;;;11.38;81.03;100623.25;1592012;88;21041;-77
2023/01/02 09:17:06;;;;;;;13.83;8.60;;;;;;;11.43;80.80;100617.69;1590952;90;21086;-77
2023/01/02 09:19:33;;;;;;;9.30;8.30;;;;;;;11.49;80.76;100616.77;1609815;88;21102;-76
2023/01/02 09:22:04;;;;;;;11.68;10.13;;;;;;;11.56;80.45;100615.59;1581856;88;21044;-79
2023/01/02 09:24:32;;;;;;;12.10;10.43;;;;;;;11.59;80.17;100611.09;1578968;88;22443;-76
2023/01/02 09:26:59;;;;;;;12.58;10.53;;;;;;;11.64;79.93;100615.27;1594642;88;21375;-76
2023/01/02 09:29:29;;;;;;;14.80;9.23;;;;;;;11.68;79.74;100610.22;1630781;86;20996;-77
2023/01/02 09:31:57;;;;;;;12.55;9.40;;;;;;;11.72;79.49;100608.69;1632228;85;20917;-77
2023/01/02 09:34:24;;;;;;;12.05;10.08;;;;;;;11.73;79.25;100603.63;1626302;88;21082;-74
2023/01/02 09:36:51;;;;;;;11.55;9.13;;;;;;;11.76;79.02;100596.41;1628787;86;21216;-74
2023/01/02 09:39:18;;;;;;;11.40;9.83;;;;;;;11.76;78.82;100593.19;1631486;86;21615;-76
2023/01/02 09:41:48;;;;;;;14.98;10.85;;;;;;;11.78;78.76;100595.66;1651397;86;21653;-75
2023/01/02 09:44:26;;;;;;;13.18;10.20;;;;;;;11.85;78.75;100595.52;1634701;86;21313;-76
2023/01/02 09:47:13;;;;;;;12.15;10.48;;;;;;;11.95;78.58;100597.09;1628866;86;21592;-78
2023/01/02 09:49:50;;;;;;;13.15;9.98;;;;;;;12.04;78.17;100595.67;1605240;89;21824;-77
2023/01/02 09:52:31;;;;;;;18.23;12.15;;;;;;;12.13;77.83;100587.53;1614163;86;21063;-75
2023/01/02 09:55:01;;;;;;;11.03;9.33;;;;;;;12.21;77.47;100606.03;1628787;86;21115;-76
2023/01/02 09:57:33;;;;;;;16.07;10.05;;;;;;;12.25;76.99;100608.54;1647621;86;21064;-74
2023/01/02 10:00:20;;;;;;;11.70;10.03;;;;;;;12.26;76.72;100612.06;1622833;88;21000;-74
2023/01/02 10:03:24;;;;;;;15.28;10.05;;;;;;;12.28;76.56;100601.86;1602726;86;21282;-74
2023/01/02 10:06:16;;;;;;;15.25;10.32;;;;;;;12.32;76.35;100608.41;1634278;86;20995;-75
2023/01/02 10:09:08;;;;;;;17.23;10.72;;;;;;;12.33;76.23;100608.68;1627411;86;21560;-78
2023/01/02 10:11:59;;;;;;;14.63;9.95;;;;;;;12.39;76.15;100615.83;1641302;86;21090;-76
2023/01/02 10:14:53;;;;;;;11.40;9.30;;;;;;;12.41;75.89;100615.90;1646308;86;21086;-80
2023/01/02 10:17:24;;;;;;;14.13;10.75;;;;;;;12.46;75.74;100621.39;1633612;86;21138;-77
2023/01/02 10:20:00;;;;;;;18.35;10.95;;;;;;;12.53;75.27;100619.36;1654691;86;21136;-77
2023/01/02 10:22:41;;;;;;;16.82;11.30;;;;;;;12.57;75.16;100615.12;1630466;88;20953;-76
2023/01/02 10:25:21;;;;;;;11.75;9.70;;;;;;;12.65;74.96;100609.89;1632227;86;21583;-77
2023/01/02 10:27:56;;;;;;;15.25;9.70;;;;;;;12.70;74.66;100606.47;1652287;86;21020;-75
2023/01/02 10:30:26;;;;;;;13.10;9.93;;;;;;;12.73;74.05;100611.38;1604699;88;21083;-73
2023/01/02 10:33:07;;;;;;;19.42;11.50;;;;;;;12.71;74.09;100608.91;1613907;87;21058;-77
2023/01/02 10:35:55;;;;;;;17.25;10.93;;;;;;;12.65;74.05;100601.27;1609544;87;21722;-75
2023/01/02 10:38:24;;;;;;;13.72;10.98;;;;;;;12.62;74.10;100597.68;1618896;88;21055;-78
2023/01/02 10:40:51;;;;;;;16.35;13.10;;;;;;;12.63;74.12;100598.50;1620071;87;21480;-75
2023/01/02 10:43:18;;;;;;;15.68;11.22;;;;;;;12.62;73.93;100599.03;1609925;87;21164;-77
2023/01/02 10:45:49;;;;;;;13.90;11.43;;;;;;;12.61;74.05;100591.98;1635632;86;21056;-78
2023/01/02 10:48:21;;;;;;;15.23;12.03;;;;;;;12.66;74.03;100596.69;1616951;88;21607;-80
2023/01/02 10:50:55;;;;;;;13.20;10.87;;;;;;;12.71;73.86;100598.66;1626596;87;21107;-80
2023/01/02 10:53:32;;;;;;;16.20;12.03;;;;;;;12.67;73.63;100592.38;1629307;87;21092;-77
2023/01/02 10:56:08;;;;;;;14.65;10.98;;;;;;;12.68;73.88;100591.33;1639422;87;21754;-77
2023/01/02 10:58:35;;;;;;;19.85;11.75;;;;;;;12.76;73.84;100586.05;1630177;87;21011;-76
2023/01/02 11:01:17;;;;;;;16.65;12.82;;;;;;;12.85;73.62;100590.55;1572866;90;21093;-77
2023/01/02 11:03:42;;;;;;;25.62;13.15;;;;;;;12.94;73.54;100588.56;1578418;91;22024;-77
2023/01/02 11:06:30;;;;;;;18.17;13.03;;;;;;;13.07;73.25;100588.78;1599269;89;21118;-78
2023/01/02 11:09:07;;;;;;;17.00;12.33;;;;;;;13.18;72.66;100588.45;1630553;87;22259;-77
2023/01/02 11:11:34;;;;;;;19.00;14.23;;;;;;;13.26;72.38;100594.80;1609528;86;21606;-79
2023/01/02 11:14:07;;;;;;;21.07;13.85;;;;;;;13.24;71.84;100591.50;1610407;88;21054;-78
2023/01/02 11:16:37;;;;;;;20.68;14.10;;;;;;;13.23;71.88;100599.34;1629129;88;21109;-76
2023/01/02 11:19:06;;;;;;;26.82;15.00;;;;;;;13.27;72.00;100594.56;1630691;87;21561;-76
2023/01/02 11:21:39;;;;;;;16.93;13.72;;;;;;;13.30;71.54;100600.81;1610170;88;21081;-77
2023/01/02 11:24:14;;;;;;;18.85;13.05;;;;;;;13.32;71.59;100597.34;1630232;87;21637;-77
2023/01/02 11:26:44;;;;;;;18.25;12.60;;;;;;;13.41;71.30;100595.05;1625575;86;21124;-79
2023/01/02 11:29:31;;;;;;;17.17;12.05;;;;;;;13.51;70.89;100600.61;1626957;86;21070;-78
2023/01/02 11:32:00;;;;;;;17.40;12.98;;;;;;;13.59;70.33;100600.72;1631231;86;21153;-79
2023/01/02 11:34:39;;;;;;;24.20;12.65;;;;;;;13.64;70.05;100600.80;1617060;86;21629;-78
2023/01/02 11:37:14;;;;;;;21.12;13.00;;;;;;;13.66;69.64;100595.97;1641901;86;21029;-78
2023/01/02 11:40:06;;;;;;;19.70;14.05;;;;;;;13.70;69.73;100599.81;1637064;86;21595;-77
2023/01/02 11:45:31;;;;;;;17.77;13.85;;;;;;;13.85;69.30;100603.56;1631643;87;21127;-72
2023/01/02 11:48:02;;;;;;;18.82;13.72;;;;;;;13.87;68.88;100608.70;1619003;88;21778;-70
2023/01/02 11:50:38;;;;;;;18.77;13.93;;;;;;;13.84;68.69;100597.86;1636991;86;21118;-83